sensor_id;sensor_type;location;lat;lon;timestamp;P1;durP1;ratioP1;P2;durP2;ratioP2
12519;SDS011;6325;49.540;8.364;2023-11-19T00:02:19;1.60;;;1.60;;
12519;SDS011;6325;49.540;8.364;2023-11-19T00:04:48;1.83;;;1.70;;
12519;SDS011;6325;49.540;8.364;2023-11-19T00:07:14;1.70;;;1.60;;
12519;SDS011;6325;49.540;8.364;2023-11-19T00:09:41;1.50;;;1.45;;
12519;SDS011;6325;49.540;8.364;2023-11-19T00:12:08;1.40;;;1.40;;
12519;SDS011;6325;49.540;8.364;2023-11-19T00:14:35;1.35;;;1.27;;
12519;SDS011;6325;49.540;8.364;2023-11-19T00:17:02;1.50;;;1.40;;
12519;SDS011;6325;49.540;8.364;2023-11-19T00:19:30;1.40;;;1.40;;
12519;SDS011;6325;49.540;8.364;2023-11-19T00:21:58;1.23;;;1.23;;
12519;SDS011;6325;49.540;8.364;2023-11-19T00:24:27;1.40;;;1.30;;
12519;SDS011;6325;49.540;8.364;2023-11-19T00:26:54;1.20;;;1.20;;
12519;SDS011;6325;49.540;8.364;2023-11-19T00:29:21;1.10;;;1.10;;
12519;SDS011;6325;49.540;8.364;2023-11-19T00:31:48;1.10;;;1.10;;
12519;SDS011;6325;49.540;8.364;2023-11-19T00:34:15;1.10;;;1.00;;
12519;SDS011;6325;49.540;8.364;2023-11-19T00:36:42;1.00;;;1.00;;
12519;SDS011;6325;49.540;8.364;2023-11-19T00:39:11;1.10;;;1.10;;
12519;SDS011;6325;49.540;8.364;2023-11-19T00:41:40;1.00;;;1.00;;
12519;SDS011;6325;49.540;8.364;2023-11-19T00:44:06;0.90;;;0.90;;
12519;SDS011;6325;49.540;8.364;2023-11-19T00:46:33;0.85;;;0.85;;
12519;SDS011;6325;49.540;8.364;2023-11-19T00:49:00;1.10;;;1.10;;
12519;SDS011;6325;49.540;8.364;2023-11-19T00:51:27;0.88;;;0.88;;
12519;SDS011;6325;49.540;8.364;2023-11-19T00:53:59;0.80;;;0.80;;
12519;SDS011;6325;49.540;8.364;2023-11-19T00:56:28;0.80;;;0.80;;
12519;SDS011;6325;49.540;8.364;2023-11-19T00:58:55;0.70;;;0.70;;
12519;SDS011;6325;49.540;8.364;2023-11-19T01:01:22;0.85;;;0.85;;
12519;SDS011;6325;49.540;8.364;2023-11-19T01:03:49;0.90;;;0.90;;
12519;SDS011;6325;49.540;8.364;2023-11-19T01:06:25;0.80;;;0.80;;
12519;SDS011;6325;49.540;8.364;2023-11-19T01:08:53;0.80;;;0.80;;
12519;SDS011;6325;49.540;8.364;2023-11-19T01:11:20;0.90;;;0.90;;
12519;SDS011;6325;49.540;8.364;2023-11-19T01:13:48;0.80;;;0.80;;
12519;SDS011;6325;49.540;8.364;2023-11-19T01:16:15;0.80;;;0.80;;
12519;SDS011;6325;49.540;8.364;2023-11-19T01:18:42;0.70;;;0.70;;
12519;SDS011;6325;49.540;8.364;2023-11-19T01:21:09;0.70;;;0.68;;
12519;SDS011;6325;49.540;8.364;2023-11-19T01:23:36;0.60;;;0.60;;
12519;SDS011;6325;49.540;8.364;2023-11-19T01:26:03;0.68;;;0.68;;
12519;SDS011;6325;49.540;8.364;2023-11-19T01:28:31;0.50;;;0.50;;
12519;SDS011;6325;49.540;8.364;2023-11-19T01:30:59;0.40;;;0.40;;
12519;SDS011;6325;49.540;8.364;2023-11-19T01:33:26;0.40;;;0.40;;
12519;SDS011;6325;49.540;8.364;2023-11-19T01:35:53;0.40;;;0.40;;
12519;SDS011;6325;49.540;8.364;2023-11-19T01:38:19;0.40;;;0.40;;
12519;SDS011;6325;49.540;8.364;2023-11-19T01:40:46;0.40;;;0.40;;
12519;SDS011;6325;49.540;8.364;2023-11-19T01:46:00;0.90;;;0.40;;
12519;SDS011;6325;49.540;8.364;2023-11-19T01:48:27;0.40;;;0.32;;
12519;SDS011;6325;49.540;8.364;2023-11-19T01:50:54;0.40;;;0.40;;
12519;SDS011;6325;49.540;8.364;2023-11-19T01:53:22;0.43;;;0.43;;
12519;SDS011;6325;49.540;8.364;2023-11-19T01:55:50;0.30;;;0.30;;
12519;SDS011;6325;49.540;8.364;2023-11-19T01:58:17;0.40;;;0.40;;
12519;SDS011;6325;49.540;8.364;2023-11-19T02:00:45;0.40;;;0.40;;
12519;SDS011;6325;49.540;8.364;2023-11-19T02:03:14;0.30;;;0.30;;
12519;SDS011;6325;49.540;8.364;2023-11-19T02:05:41;0.40;;;0.40;;
12519;SDS011;6325;49.540;8.364;2023-11-19T02:08:08;0.30;;;0.30;;
12519;SDS011;6325;49.540;8.364;2023-11-19T02:10:35;0.40;;;0.40;;
12519;SDS011;6325;49.540;8.364;2023-11-19T02:13:02;0.47;;;0.32;;
12519;SDS011;6325;49.540;8.364;2023-11-19T02:15:31;0.32;;;0.32;;
12519;SDS011;6325;49.540;8.364;2023-11-19T02:18:10;0.35;;;0.35;;
12519;SDS011;6325;49.540;8.364;2023-11-19T02:20:45;0.40;;;0.40;;
12519;SDS011;6325;49.540;8.364;2023-11-19T02:23:13;0.30;;;0.30;;
12519;SDS011;6325;49.540;8.364;2023-11-19T02:25:40;0.30;;;0.30;;
12519;SDS011;6325;49.540;8.364;2023-11-19T02:28:08;0.30;;;0.30;;
12519;SDS011;6325;49.540;8.364;2023-11-19T02:30:37;0.30;;;0.30;;
12519;SDS011;6325;49.540;8.364;2023-11-19T02:33:04;0.30;;;0.30;;
12519;SDS011;6325;49.540;8.364;2023-11-19T02:35:31;0.33;;;0.23;;
12519;SDS011;6325;49.540;8.364;2023-11-19T02:37:59;0.45;;;0.20;;
12519;SDS011;6325;49.540;8.364;2023-11-19T02:40:26;0.30;;;0.30;;
12519;SDS011;6325;49.540;8.364;2023-11-19T02:42:53;0.30;;;0.30;;
12519;SDS011;6325;49.540;8.364;2023-11-19T02:45:23;0.30;;;0.30;;
12519;SDS011;6325;49.540;8.364;2023-11-19T02:47:50;0.30;;;0.30;;
12519;SDS011;6325;49.540;8.364;2023-11-19T02:50:17;0.20;;;0.20;;
12519;SDS011;6325;49.540;8.364;2023-11-19T02:52:50;0.38;;;0.30;;
12519;SDS011;6325;49.540;8.364;2023-11-19T02:55:18;0.30;;;0.30;;
12519;SDS011;6325;49.540;8.364;2023-11-19T02:57:45;0.32;;;0.32;;
12519;SDS011;6325;49.540;8.364;2023-11-19T03:00:14;0.30;;;0.30;;
12519;SDS011;6325;49.540;8.364;2023-11-19T03:02:42;0.20;;;0.20;;
12519;SDS011;6325;49.540;8.364;2023-11-19T03:05:11;0.25;;;0.25;;
12519;SDS011;6325;49.540;8.364;2023-11-19T03:07:39;0.20;;;0.20;;
12519;SDS011;6325;49.540;8.364;2023-11-19T03:10:09;0.30;;;0.30;;
12519;SDS011;6325;49.540;8.364;2023-11-19T03:12:38;0.20;;;0.20;;
12519;SDS011;6325;49.540;8.364;2023-11-19T03:15:06;0.30;;;0.30;;
12519;SDS011;6325;49.540;8.364;2023-11-19T03:17:34;0.30;;;0.30;;
12519;SDS011;6325;49.540;8.364;2023-11-19T03:20:03;0.20;;;0.20;;
12519;SDS011;6325;49.540;8.364;2023-11-19T03:22:34;0.30;;;0.30;;
12519;SDS011;6325;49.540;8.364;2023-11-19T03:25:01;0.32;;;0.30;;
12519;SDS011;6325;49.540;8.364;2023-11-19T03:27:28;0.30;;;0.30;;
12519;SDS011;6325;49.540;8.364;2023-11-19T03:29:55;0.30;;;0.30;;
12519;SDS011;6325;49.540;8.364;2023-11-19T03:32:21;0.30;;;0.30;;
12519;SDS011;6325;49.540;8.364;2023-11-19T03:34:48;0.22;;;0.22;;
12519;SDS011;6325;49.540;8.364;2023-11-19T03:37:16;0.40;;;0.40;;
12519;SDS011;6325;49.540;8.364;2023-11-19T03:39:43;0.30;;;0.30;;
12519;SDS011;6325;49.540;8.364;2023-11-19T03:42:10;0.30;;;0.30;;
12519;SDS011;6325;49.540;8.364;2023-11-19T03:44:38;0.30;;;0.30;;
12519;SDS011;6325;49.540;8.364;2023-11-19T03:47:05;0.40;;;0.40;;
12519;SDS011;6325;49.540;8.364;2023-11-19T03:49:32;0.50;;;0.50;;
12519;SDS011;6325;49.540;8.364;2023-11-19T03:51:58;1.48;;;1.48;;
12519;SDS011;6325;49.540;8.364;2023-11-19T03:54:27;1.30;;;1.30;;
12519;SDS011;6325;49.540;8.364;2023-11-19T03:56:54;0.70;;;0.70;;
12519;SDS011;6325;49.540;8.364;2023-11-19T03:59:21;0.60;;;0.60;;
12519;SDS011;6325;49.540;8.364;2023-11-19T04:01:47;0.77;;;0.77;;
12519;SDS011;6325;49.540;8.364;2023-11-19T04:04:14;0.90;;;0.90;;
12519;SDS011;6325;49.540;8.364;2023-11-19T04:06:41;0.80;;;0.80;;
12519;SDS011;6325;49.540;8.364;2023-11-19T04:09:07;0.57;;;0.57;;
12519;SDS011;6325;49.540;8.364;2023-11-19T04:11:36;0.70;;;0.60;;
12519;SDS011;6325;49.540;8.364;2023-11-19T04:14:05;0.60;;;0.60;;
12519;SDS011;6325;49.540;8.364;2023-11-19T04:16:31;0.80;;;0.60;;
12519;SDS011;6325;49.540;8.364;2023-11-19T04:18:58;0.50;;;0.50;;
12519;SDS011;6325;49.540;8.364;2023-11-19T04:21:25;0.43;;;0.43;;
12519;SDS011;6325;49.540;8.364;2023-11-19T04:23:52;0.50;;;0.50;;
12519;SDS011;6325;49.540;8.364;2023-11-19T04:26:18;0.70;;;0.70;;
12519;SDS011;6325;49.540;8.364;2023-11-19T04:28:46;0.40;;;0.40;;
12519;SDS011;6325;49.540;8.364;2023-11-19T04:31:14;0.50;;;0.50;;
12519;SDS011;6325;49.540;8.364;2023-11-19T04:33:41;0.50;;;0.50;;
12519;SDS011;6325;49.540;8.364;2023-11-19T04:36:08;0.52;;;0.52;;
12519;SDS011;6325;49.540;8.364;2023-11-19T04:38:36;0.63;;;0.63;;
12519;SDS011;6325;49.540;8.364;2023-11-19T04:41:03;0.80;;;0.80;;
12519;SDS011;6325;49.540;8.364;2023-11-19T04:43:31;0.60;;;0.60;;
12519;SDS011;6325;49.540;8.364;2023-11-19T04:45:59;0.50;;;0.50;;
12519;SDS011;6325;49.540;8.364;2023-11-19T04:48:26;0.50;;;0.50;;
12519;SDS011;6325;49.540;8.364;2023-11-19T04:50:53;0.55;;;0.55;;
12519;SDS011;6325;49.540;8.364;2023-11-19T04:53:19;0.50;;;0.50;;
12519;SDS011;6325;49.540;8.364;2023-11-19T04:55:46;0.60;;;0.60;;
12519;SDS011;6325;49.540;8.364;2023-11-19T04:58:13;0.60;;;0.60;;
12519;SDS011;6325;49.540;8.364;2023-11-19T05:00:40;0.50;;;0.50;;
12519;SDS011;6325;49.540;8.364;2023-11-19T05:03:07;0.50;;;0.50;;
12519;SDS011;6325;49.540;8.364;2023-11-19T05:05:34;0.68;;;0.68;;
12519;SDS011;6325;49.540;8.364;2023-11-19T05:08:01;0.40;;;0.40;;
12519;SDS011;6325;49.540;8.364;2023-11-19T05:10:27;0.50;;;0.50;;
12519;SDS011;6325;49.540;8.364;2023-11-19T05:12:54;0.50;;;0.50;;
12519;SDS011;6325;49.540;8.364;2023-11-19T05:15:21;0.50;;;0.50;;
12519;SDS011;6325;49.540;8.364;2023-11-19T05:17:49;0.60;;;0.60;;
12519;SDS011;6325;49.540;8.364;2023-11-19T05:20:17;0.50;;;0.50;;
12519;SDS011;6325;49.540;8.364;2023-11-19T05:22:43;0.70;;;0.60;;
12519;SDS011;6325;49.540;8.364;2023-11-19T05:25:10;0.52;;;0.52;;
12519;SDS011;6325;49.540;8.364;2023-11-19T05:27:37;0.60;;;0.60;;
12519;SDS011;6325;49.540;8.364;2023-11-19T05:30:05;0.60;;;0.60;;
12519;SDS011;6325;49.540;8.364;2023-11-19T05:32:33;0.50;;;0.50;;
12519;SDS011;6325;49.540;8.364;2023-11-19T05:35:00;0.60;;;0.60;;
12519;SDS011;6325;49.540;8.364;2023-11-19T05:37:28;0.63;;;0.60;;
12519;SDS011;6325;49.540;8.364;2023-11-19T05:39:54;0.60;;;0.60;;
12519;SDS011;6325;49.540;8.364;2023-11-19T05:42:21;0.50;;;0.50;;
12519;SDS011;6325;49.540;8.364;2023-11-19T05:44:49;0.50;;;0.50;;
12519;SDS011;6325;49.540;8.364;2023-11-19T05:47:17;0.70;;;0.70;;
12519;SDS011;6325;49.540;8.364;2023-11-19T05:49:43;0.60;;;0.60;;
12519;SDS011;6325;49.540;8.364;2023-11-19T05:52:10;0.60;;;0.60;;
12519;SDS011;6325;49.540;8.364;2023-11-19T05:54:38;0.63;;;0.63;;
12519;SDS011;6325;49.540;8.364;2023-11-19T05:57:06;0.60;;;0.60;;
12519;SDS011;6325;49.540;8.364;2023-11-19T05:59:34;0.75;;;0.60;;
12519;SDS011;6325;49.540;8.364;2023-11-19T06:02:01;0.60;;;0.60;;
12519;SDS011;6325;49.540;8.364;2023-11-19T06:04:28;0.65;;;0.65;;
12519;SDS011;6325;49.540;8.364;2023-11-19T06:06:55;0.60;;;0.60;;
12519;SDS011;6325;49.540;8.364;2023-11-19T06:09:21;0.57;;;0.57;;
12519;SDS011;6325;49.540;8.364;2023-11-19T06:11:50;0.50;;;0.50;;
12519;SDS011;6325;49.540;8.364;2023-11-19T06:14:17;0.70;;;0.70;;
12519;SDS011;6325;49.540;8.364;2023-11-19T06:16:44;0.60;;;0.60;;
12519;SDS011;6325;49.540;8.364;2023-11-19T06:19:11;0.60;;;0.60;;
12519;SDS011;6325;49.540;8.364;2023-11-19T06:21:38;0.50;;;0.50;;
12519;SDS011;6325;49.540;8.364;2023-11-19T06:24:04;0.60;;;0.60;;
12519;SDS011;6325;49.540;8.364;2023-11-19T06:26:31;0.60;;;0.60;;
12519;SDS011;6325;49.540;8.364;2023-11-19T06:29:00;0.57;;;0.57;;
12519;SDS011;6325;49.540;8.364;2023-11-19T06:31:26;0.70;;;0.70;;
12519;SDS011;6325;49.540;8.364;2023-11-19T06:33:53;0.50;;;0.50;;
12519;SDS011;6325;49.540;8.364;2023-11-19T06:36:20;0.70;;;0.70;;
12519;SDS011;6325;49.540;8.364;2023-11-19T06:38:46;0.60;;;0.60;;
12519;SDS011;6325;49.540;8.364;2023-11-19T06:41:13;0.60;;;0.60;;
12519;SDS011;6325;49.540;8.364;2023-11-19T06:43:40;0.50;;;0.50;;
12519;SDS011;6325;49.540;8.364;2023-11-19T06:46:15;0.73;;;0.60;;
12519;SDS011;6325;49.540;8.364;2023-11-19T06:48:42;0.50;;;0.50;;
12519;SDS011;6325;49.540;8.364;2023-11-19T06:51:09;0.70;;;0.70;;
12519;SDS011;6325;49.540;8.364;2023-11-19T06:53:36;0.70;;;0.70;;
12519;SDS011;6325;49.540;8.364;2023-11-19T06:56:04;0.60;;;0.60;;
12519;SDS011;6325;49.540;8.364;2023-11-19T06:58:35;0.65;;;0.65;;
12519;SDS011;6325;49.540;8.364;2023-11-19T07:01:02;0.57;;;0.57;;
12519;SDS011;6325;49.540;8.364;2023-11-19T07:03:31;0.60;;;0.60;;
12519;SDS011;6325;49.540;8.364;2023-11-19T07:05:57;0.70;;;0.70;;
12519;SDS011;6325;49.540;8.364;2023-11-19T07:08:24;0.60;;;0.60;;
12519;SDS011;6325;49.540;8.364;2023-11-19T07:10:51;0.55;;;0.55;;
12519;SDS011;6325;49.540;8.364;2023-11-19T07:13:18;0.68;;;0.68;;
12519;SDS011;6325;49.540;8.364;2023-11-19T07:15:46;0.70;;;0.70;;
12519;SDS011;6325;49.540;8.364;2023-11-19T07:18:13;0.70;;;0.70;;
12519;SDS011;6325;49.540;8.364;2023-11-19T07:20:41;0.55;;;0.55;;
12519;SDS011;6325;49.540;8.364;2023-11-19T07:23:08;0.52;;;0.52;;
12519;SDS011;6325;49.540;8.364;2023-11-19T07:25:35;0.70;;;0.60;;
12519;SDS011;6325;49.540;8.364;2023-11-19T07:28:02;0.70;;;0.70;;
12519;SDS011;6325;49.540;8.364;2023-11-19T07:30:29;0.77;;;0.77;;
12519;SDS011;6325;49.540;8.364;2023-11-19T07:32:56;0.70;;;0.70;;
12519;SDS011;6325;49.540;8.364;2023-11-19T07:35:23;0.63;;;0.60;;
12519;SDS011;6325;49.540;8.364;2023-11-19T07:37:51;0.60;;;0.60;;
12519;SDS011;6325;49.540;8.364;2023-11-19T07:40:20;0.63;;;0.60;;
12519;SDS011;6325;49.540;8.364;2023-11-19T07:42:49;0.65;;;0.65;;
12519;SDS011;6325;49.540;8.364;2023-11-19T07:45:19;0.60;;;0.60;;
12519;SDS011;6325;49.540;8.364;2023-11-19T07:47:46;0.88;;;0.63;;
12519;SDS011;6325;49.540;8.364;2023-11-19T07:50:13;0.68;;;0.68;;
12519;SDS011;6325;49.540;8.364;2023-11-19T07:52:41;0.70;;;0.70;;
12519;SDS011;6325;49.540;8.364;2023-11-19T07:55:10;0.82;;;0.75;;
12519;SDS011;6325;49.540;8.364;2023-11-19T07:57:38;0.88;;;0.77;;
12519;SDS011;6325;49.540;8.364;2023-11-19T08:00:07;0.70;;;0.70;;
12519;SDS011;6325;49.540;8.364;2023-11-19T08:02:37;0.70;;;0.70;;
12519;SDS011;6325;49.540;8.364;2023-11-19T08:05:07;0.70;;;0.70;;
12519;SDS011;6325;49.540;8.364;2023-11-19T08:07:33;0.70;;;0.70;;
12519;SDS011;6325;49.540;8.364;2023-11-19T08:10:00;0.57;;;0.57;;
12519;SDS011;6325;49.540;8.364;2023-11-19T08:12:28;0.60;;;0.60;;
12519;SDS011;6325;49.540;8.364;2023-11-19T08:14:55;0.70;;;0.70;;
12519;SDS011;6325;49.540;8.364;2023-11-19T08:17:23;0.65;;;0.65;;
12519;SDS011;6325;49.540;8.364;2023-11-19T08:19:50;0.60;;;0.60;;
12519;SDS011;6325;49.540;8.364;2023-11-19T08:22:17;0.60;;;0.60;;
12519;SDS011;6325;49.540;8.364;2023-11-19T08:24:44;0.57;;;0.57;;
12519;SDS011;6325;49.540;8.364;2023-11-19T08:27:10;0.60;;;0.60;;
12519;SDS011;6325;49.540;8.364;2023-11-19T08:29:38;0.60;;;0.60;;
12519;SDS011;6325;49.540;8.364;2023-11-19T08:32:06;0.60;;;0.60;;
12519;SDS011;6325;49.540;8.364;2023-11-19T08:34:32;0.70;;;0.70;;
12519;SDS011;6325;49.540;8.364;2023-11-19T08:36:59;0.60;;;0.60;;
12519;SDS011;6325;49.540;8.364;2023-11-19T08:39:26;0.82;;;0.77;;
12519;SDS011;6325;49.540;8.364;2023-11-19T08:41:53;0.80;;;0.80;;
12519;SDS011;6325;49.540;8.364;2023-11-19T08:44:20;0.70;;;0.70;;
12519;SDS011;6325;49.540;8.364;2023-11-19T08:46:49;0.60;;;0.60;;
12519;SDS011;6325;49.540;8.364;2023-11-19T08:49:17;0.60;;;0.60;;
12519;SDS011;6325;49.540;8.364;2023-11-19T08:51:48;0.57;;;0.57;;
12519;SDS011;6325;49.540;8.364;2023-11-19T08:54:14;0.60;;;0.60;;
12519;SDS011;6325;49.540;8.364;2023-11-19T08:56:41;0.70;;;0.70;;
12519;SDS011;6325;49.540;8.364;2023-11-19T08:59:08;0.50;;;0.50;;
12519;SDS011;6325;49.540;8.364;2023-11-19T09:01:34;0.68;;;0.68;;
12519;SDS011;6325;49.540;8.364;2023-11-19T09:04:03;0.73;;;0.60;;
12519;SDS011;6325;49.540;8.364;2023-11-19T09:06:31;1.20;;;0.70;;
12519;SDS011;6325;49.540;8.364;2023-11-19T09:08:58;0.93;;;0.80;;
12519;SDS011;6325;49.540;8.364;2023-11-19T09:11:28;0.77;;;0.60;;
12519;SDS011;6325;49.540;8.364;2023-11-19T09:13:55;1.23;;;0.70;;
12519;SDS011;6325;49.540;8.364;2023-11-19T09:16:21;0.93;;;0.80;;
12519;SDS011;6325;49.540;8.364;2023-11-19T09:18:49;1.00;;;0.80;;
12519;SDS011;6325;49.540;8.364;2023-11-19T09:21:17;0.80;;;0.70;;
12519;SDS011;6325;49.540;8.364;2023-11-19T09:23:46;0.80;;;0.80;;
12519;SDS011;6325;49.540;8.364;2023-11-19T09:26:14;0.77;;;0.70;;
12519;SDS011;6325;49.540;8.364;2023-11-19T09:28:41;1.05;;;0.70;;
12519;SDS011;6325;49.540;8.364;2023-11-19T09:31:13;0.90;;;0.90;;
12519;SDS011;6325;49.540;8.364;2023-11-19T09:33:40;0.73;;;0.73;;
12519;SDS011;6325;49.540;8.364;2023-11-19T09:36:07;0.70;;;0.70;;
12519;SDS011;6325;49.540;8.364;2023-11-19T09:38:37;0.60;;;0.60;;
12519;SDS011;6325;49.540;8.364;2023-11-19T09:41:04;0.70;;;0.70;;
12519;SDS011;6325;49.540;8.364;2023-11-19T09:43:33;0.88;;;0.88;;
12519;SDS011;6325;49.540;8.364;2023-11-19T09:46:01;0.90;;;0.80;;
12519;SDS011;6325;49.540;8.364;2023-11-19T09:48:32;0.83;;;0.83;;
12519;SDS011;6325;49.540;8.364;2023-11-19T09:50:59;0.80;;;0.80;;
12519;SDS011;6325;49.540;8.364;2023-11-19T09:53:27;0.80;;;0.77;;
12519;SDS011;6325;49.540;8.364;2023-11-19T09:55:55;0.70;;;0.70;;
12519;SDS011;6325;49.540;8.364;2023-11-19T09:58:22;0.70;;;0.70;;
12519;SDS011;6325;49.540;8.364;2023-11-19T10:00:49;1.20;;;0.80;;
12519;SDS011;6325;49.540;8.364;2023-11-19T10:03:17;1.02;;;0.80;;
12519;SDS011;6325;49.540;8.364;2023-11-19T10:05:44;1.17;;;1.02;;
12519;SDS011;6325;49.540;8.364;2023-11-19T10:08:10;0.98;;;0.98;;
12519;SDS011;6325;49.540;8.364;2023-11-19T10:10:38;1.13;;;0.90;;
12519;SDS011;6325;49.540;8.364;2023-11-19T10:13:07;1.23;;;1.00;;
12519;SDS011;6325;49.540;8.364;2023-11-19T10:15:35;1.60;;;1.00;;
12519;SDS011;6325;49.540;8.364;2023-11-19T10:18:02;1.98;;;1.50;;
12519;SDS011;6325;49.540;8.364;2023-11-19T10:20:34;2.15;;;1.30;;
12519;SDS011;6325;49.540;8.364;2023-11-19T10:23:10;1.30;;;0.93;;
12519;SDS011;6325;49.540;8.364;2023-11-19T10:25:52;1.83;;;1.10;;
12519;SDS011;6325;49.540;8.364;2023-11-19T10:28:46;3.92;;;2.10;;
12519;SDS011;6325;49.540;8.364;2023-11-19T10:31:14;3.05;;;1.50;;
12519;SDS011;6325;49.540;8.364;2023-11-19T10:33:40;1.63;;;1.23;;
12519;SDS011;6325;49.540;8.364;2023-11-19T10:36:09;1.50;;;1.40;;
12519;SDS011;6325;49.540;8.364;2023-11-19T10:38:37;1.05;;;0.98;;
12519;SDS011;6325;49.540;8.364;2023-11-19T10:41:04;1.50;;;1.00;;
12519;SDS011;6325;49.540;8.364;2023-11-19T10:43:31;2.70;;;1.48;;
12519;SDS011;6325;49.540;8.364;2023-11-19T10:46:11;2.05;;;1.10;;
12519;SDS011;6325;49.540;8.364;2023-11-19T10:48:39;3.03;;;1.80;;
12519;SDS011;6325;49.540;8.364;2023-11-19T10:51:06;2.72;;;1.70;;
12519;SDS011;6325;49.540;8.364;2023-11-19T10:53:35;1.30;;;0.98;;
12519;SDS011;6325;49.540;8.364;2023-11-19T10:56:06;1.17;;;1.00;;
12519;SDS011;6325;49.540;8.364;2023-11-19T10:58:36;2.00;;;1.00;;
12519;SDS011;6325;49.540;8.364;2023-11-19T11:01:09;0.87;;;0.70;;
12519;SDS011;6325;49.540;8.364;2023-11-19T11:03:42;3.10;;;1.80;;
12519;SDS011;6325;49.540;8.364;2023-11-19T11:06:11;1.23;;;1.10;;
12519;SDS011;6325;49.540;8.364;2023-11-19T11:08:39;1.05;;;0.93;;
12519;SDS011;6325;49.540;8.364;2023-11-19T11:11:07;1.40;;;1.02;;
12519;SDS011;6325;49.540;8.364;2023-11-19T11:13:39;6.97;;;3.40;;
12519;SDS011;6325;49.540;8.364;2023-11-19T11:16:09;3.42;;;2.08;;
12519;SDS011;6325;49.540;8.364;2023-11-19T11:18:38;7.30;;;4.18;;
12519;SDS011;6325;49.540;8.364;2023-11-19T11:21:06;5.90;;;3.20;;
12519;SDS011;6325;49.540;8.364;2023-11-19T11:23:48;1.65;;;1.48;;
12519;SDS011;6325;49.540;8.364;2023-11-19T11:26:37;3.00;;;1.85;;
12519;SDS011;6325;49.540;8.364;2023-11-19T11:29:20;2.15;;;1.35;;
12519;SDS011;6325;49.540;8.364;2023-11-19T11:31:55;4.40;;;2.30;;
12519;SDS011;6325;49.540;8.364;2023-11-19T11:34:37;9.00;;;3.70;;
12519;SDS011;6325;49.540;8.364;2023-11-19T11:37:18;4.80;;;2.70;;
12519;SDS011;6325;49.540;8.364;2023-11-19T11:39:49;6.13;;;2.80;;
12519;SDS011;6325;49.540;8.364;2023-11-19T11:42:32;6.45;;;3.17;;
12519;SDS011;6325;49.540;8.364;2023-11-19T11:45:02;6.15;;;3.28;;
12519;SDS011;6325;49.540;8.364;2023-11-19T11:50:46;4.32;;;2.35;;
12519;SDS011;6325;49.540;8.364;2023-11-19T11:53:15;4.80;;;2.47;;
12519;SDS011;6325;49.540;8.364;2023-11-19T11:55:53;3.75;;;2.20;;
12519;SDS011;6325;49.540;8.364;2023-11-19T11:58:30;5.22;;;2.78;;
12519;SDS011;6325;49.540;8.364;2023-11-19T12:00:58;7.60;;;3.85;;
12519;SDS011;6325;49.540;8.364;2023-11-19T12:03:27;6.30;;;3.30;;
12519;SDS011;6325;49.540;8.364;2023-11-19T12:05:57;3.07;;;1.77;;
12519;SDS011;6325;49.540;8.364;2023-11-19T12:08:25;1.20;;;1.10;;
12519;SDS011;6325;49.540;8.364;2023-11-19T12:10:54;2.20;;;1.15;;
12519;SDS011;6325;49.540;8.364;2023-11-19T12:13:23;3.70;;;2.40;;
12519;SDS011;6325;49.540;8.364;2023-11-19T12:16:09;2.95;;;1.80;;
12519;SDS011;6325;49.540;8.364;2023-11-19T12:18:38;1.70;;;1.33;;
12519;SDS011;6325;49.540;8.364;2023-11-19T12:21:08;4.72;;;2.45;;
12519;SDS011;6325;49.540;8.364;2023-11-19T12:23:44;4.65;;;2.35;;
12519;SDS011;6325;49.540;8.364;2023-11-19T12:26:31;2.15;;;1.10;;
12519;SDS011;6325;49.540;8.364;2023-11-19T12:29:00;6.93;;;3.60;;
12519;SDS011;6325;49.540;8.364;2023-11-19T12:31:28;3.58;;;2.30;;
12519;SDS011;6325;49.540;8.364;2023-11-19T12:33:56;4.85;;;2.03;;
12519;SDS011;6325;49.540;8.364;2023-11-19T12:36:24;1.80;;;1.13;;
12519;SDS011;6325;49.540;8.364;2023-11-19T12:38:51;10.60;;;4.90;;
12519;SDS011;6325;49.540;8.364;2023-11-19T12:41:18;4.60;;;2.23;;
12519;SDS011;6325;49.540;8.364;2023-11-19T12:43:48;9.65;;;4.90;;
12519;SDS011;6325;49.540;8.364;2023-11-19T12:46:18;6.93;;;3.70;;
12519;SDS011;6325;49.540;8.364;2023-11-19T12:48:46;7.28;;;3.33;;
12519;SDS011;6325;49.540;8.364;2023-11-19T12:51:13;3.97;;;2.10;;
12519;SDS011;6325;49.540;8.364;2023-11-19T12:53:48;10.35;;;5.22;;
12519;SDS011;6325;49.540;8.364;2023-11-19T12:56:18;8.50;;;4.40;;
12519;SDS011;6325;49.540;8.364;2023-11-19T12:58:44;7.75;;;4.35;;
12519;SDS011;6325;49.540;8.364;2023-11-19T13:01:15;4.25;;;2.33;;
12519;SDS011;6325;49.540;8.364;2023-11-19T13:03:44;5.72;;;3.08;;
12519;SDS011;6325;49.540;8.364;2023-11-19T13:06:11;3.42;;;1.95;;
12519;SDS011;6325;49.540;8.364;2023-11-19T13:08:41;5.97;;;3.03;;
12519;SDS011;6325;49.540;8.364;2023-11-19T13:11:11;6.47;;;3.13;;
12519;SDS011;6325;49.540;8.364;2023-11-19T13:13:54;7.45;;;2.92;;
12519;SDS011;6325;49.540;8.364;2023-11-19T13:16:21;3.67;;;1.60;;
12519;SDS011;6325;49.540;8.364;2023-11-19T13:18:48;3.95;;;2.10;;
12519;SDS011;6325;49.540;8.364;2023-11-19T13:21:15;5.88;;;3.30;;
12519;SDS011;6325;49.540;8.364;2023-11-19T13:23:42;4.43;;;2.47;;
12519;SDS011;6325;49.540;8.364;2023-11-19T13:26:10;7.47;;;3.97;;
12519;SDS011;6325;49.540;8.364;2023-11-19T13:28:37;7.85;;;4.18;;
12519;SDS011;6325;49.540;8.364;2023-11-19T13:31:04;2.50;;;1.70;;
12519;SDS011;6325;49.540;8.364;2023-11-19T13:33:32;2.45;;;1.27;;
12519;SDS011;6325;49.540;8.364;2023-11-19T13:35:59;5.32;;;1.42;;
12519;SDS011;6325;49.540;8.364;2023-11-19T13:38:30;4.60;;;2.10;;
12519;SDS011;6325;49.540;8.364;2023-11-19T13:40:57;5.15;;;2.72;;
12519;SDS011;6325;49.540;8.364;2023-11-19T13:43:26;8.25;;;3.85;;
12519;SDS011;6325;49.540;8.364;2023-11-19T13:45:53;1.92;;;1.23;;
12519;SDS011;6325;49.540;8.364;2023-11-19T13:48:21;2.25;;;1.50;;
12519;SDS011;6325;49.540;8.364;2023-11-19T13:50:48;9.25;;;4.18;;
12519;SDS011;6325;49.540;8.364;2023-11-19T13:53:14;7.05;;;3.53;;
12519;SDS011;6325;49.540;8.364;2023-11-19T13:55:41;8.88;;;4.13;;
12519;SDS011;6325;49.540;8.364;2023-11-19T13:58:08;11.48;;;5.30;;
12519;SDS011;6325;49.540;8.364;2023-11-19T14:00:36;7.63;;;3.95;;
12519;SDS011;6325;49.540;8.364;2023-11-19T14:03:04;5.43;;;2.22;;
12519;SDS011;6325;49.540;8.364;2023-11-19T14:05:30;8.00;;;3.70;;
12519;SDS011;6325;49.540;8.364;2023-11-19T14:07:59;13.07;;;5.68;;
12519;SDS011;6325;49.540;8.364;2023-11-19T14:10:26;9.18;;;4.22;;
12519;SDS011;6325;49.540;8.364;2023-11-19T14:12:53;8.80;;;4.03;;
12519;SDS011;6325;49.540;8.364;2023-11-19T14:15:20;8.05;;;4.10;;
12519;SDS011;6325;49.540;8.364;2023-11-19T14:17:48;8.07;;;3.83;;
12519;SDS011;6325;49.540;8.364;2023-11-19T14:20:15;5.05;;;2.80;;
12519;SDS011;6325;49.540;8.364;2023-11-19T14:22:43;8.63;;;4.20;;
12519;SDS011;6325;49.540;8.364;2023-11-19T14:25:12;5.85;;;2.80;;
12519;SDS011;6325;49.540;8.364;2023-11-19T14:27:40;3.72;;;2.10;;
12519;SDS011;6325;49.540;8.364;2023-11-19T14:30:08;5.75;;;2.88;;
12519;SDS011;6325;49.540;8.364;2023-11-19T14:32:38;10.07;;;4.47;;
12519;SDS011;6325;49.540;8.364;2023-11-19T14:35:10;8.90;;;4.78;;
12519;SDS011;6325;49.540;8.364;2023-11-19T14:37:37;11.75;;;5.25;;
12519;SDS011;6325;49.540;8.364;2023-11-19T14:40:04;14.50;;;6.25;;
12519;SDS011;6325;49.540;8.364;2023-11-19T14:42:34;12.27;;;6.10;;
12519;SDS011;6325;49.540;8.364;2023-11-19T14:45:02;14.60;;;6.73;;
12519;SDS011;6325;49.540;8.364;2023-11-19T14:47:29;4.00;;;2.30;;
12519;SDS011;6325;49.540;8.364;2023-11-19T14:49:56;2.40;;;1.70;;
12519;SDS011;6325;49.540;8.364;2023-11-19T14:52:24;4.45;;;2.58;;
12519;SDS011;6325;49.540;8.364;2023-11-19T14:54:51;7.00;;;3.65;;
12519;SDS011;6325;49.540;8.364;2023-11-19T14:57:19;8.10;;;3.78;;
12519;SDS011;6325;49.540;8.364;2023-11-19T14:59:46;6.30;;;3.27;;
12519;SDS011;6325;49.540;8.364;2023-11-19T15:02:13;7.85;;;3.83;;
12519;SDS011;6325;49.540;8.364;2023-11-19T15:04:39;11.18;;;4.78;;
12519;SDS011;6325;49.540;8.364;2023-11-19T15:07:09;7.72;;;4.13;;
12519;SDS011;6325;49.540;8.364;2023-11-19T15:09:38;9.57;;;4.18;;
12519;SDS011;6325;49.540;8.364;2023-11-19T15:12:05;3.03;;;1.70;;
12519;SDS011;6325;49.540;8.364;2023-11-19T15:14:32;4.35;;;2.10;;